sensor_id;sensor_type;location;lat;lon;timestamp;noise_LAeq;noise_LA_min;noise_LA_max;noise_LA01;noise_LA95
79288;Laerm;68737;53.946;27.634;2023-07-13T00:00:06;42.836235;36.880951;56.719299;;
79288;Laerm;68737;53.946;27.634;2023-07-13T00:02:37;40.477776;37.067810;46.281075;;
79288;Laerm;68737;53.946;27.634;2023-07-13T00:05:08;41.754745;37.238655;54.634895;;
79288;Laerm;68737;53.946;27.634;2023-07-13T00:07:36;39.587524;36.939201;41.675247;;
79288;Laerm;68737;53.946;27.634;2023-07-13T00:10:06;39.770782;37.379959;62.743450;;
79288;Laerm;68737;53.946;27.634;2023-07-13T00:12:37;39.603600;37.322105;45.908943;;
79288;Laerm;68737;53.946;27.634;2023-07-13T00:15:09;42.699867;37.622223;56.450417;;
79288;Laerm;68737;53.946;27.634;2023-07-13T00:17:36;39.609207;37.125031;42.196671;;
79288;Laerm;68737;53.946;27.634;2023-07-13T00:20:06;42.837822;36.915337;57.975471;;
79288;Laerm;68737;53.946;27.634;2023-07-13T00:22:36;42.656036;37.157936;57.639687;;
79288;Laerm;68737;53.946;27.634;2023-07-13T00:25:06;47.314484;37.159889;62.756428;;
79288;Laerm;68737;53.946;27.634;2023-07-13T00:27:36;39.282112;36.898354;42.806595;;
79288;Laerm;68737;53.946;27.634;2023-07-13T00:30:06;39.004845;36.633720;42.701767;;
79288;Laerm;68737;53.946;27.634;2023-07-13T00:32:36;42.587196;38.059906;51.367821;;
79288;Laerm;68737;53.946;27.634;2023-07-13T00:35:06;40.236565;37.763947;43.933044;;
79288;Laerm;68737;53.946;27.634;2023-07-13T00:37:36;43.513916;38.090897;57.615501;;
79288;Laerm;68737;53.946;27.634;2023-07-13T00:40:06;42.545197;38.149834;57.952408;;
79288;Laerm;68737;53.946;27.634;2023-07-13T00:42:36;41.473907;37.311073;53.498024;;
79288;Laerm;68737;53.946;27.634;2023-07-13T00:47:36;46.462921;37.169479;59.752048;;
79288;Laerm;68737;53.946;27.634;2023-07-13T00:50:07;39.342445;36.775032;56.307724;;
79288;Laerm;68737;53.946;27.634;2023-07-13T00:52:36;40.059006;37.107780;49.373749;;
79288;Laerm;68737;53.946;27.634;2023-07-13T00:55:06;39.719612;37.139008;49.475677;;
79288;Laerm;68737;53.946;27.634;2023-07-13T00:57:36;44.830742;37.391281;58.953247;;
79288;Laerm;68737;53.946;27.634;2023-07-13T01:00:06;47.753212;37.041100;62.831062;;
79288;Laerm;68737;53.946;27.634;2023-07-13T01:02:37;39.903648;37.006516;44.427856;;
79288;Laerm;68737;53.946;27.634;2023-07-13T01:07:36;41.381294;37.429825;46.370964;;
79288;Laerm;68737;53.946;27.634;2023-07-13T01:10:06;40.544472;37.900124;45.631210;;
79288;Laerm;68737;53.946;27.634;2023-07-13T01:12:36;45.156715;38.564240;58.340569;;
79288;Laerm;68737;53.946;27.634;2023-07-13T01:15:32;43.681740;38.152153;59.646683;;
79288;Laerm;68737;53.946;27.634;2023-07-13T01:17:36;39.929985;37.271645;45.272018;;
79288;Laerm;68737;53.946;27.634;2023-07-13T01:20:06;49.335541;37.217743;65.270172;;
79288;Laerm;68737;53.946;27.634;2023-07-13T01:22:36;44.071335;38.022514;54.161362;;
79288;Laerm;68737;53.946;27.634;2023-07-13T01:25:06;45.156853;37.326759;57.490593;;
79288;Laerm;68737;53.946;27.634;2023-07-13T01:27:36;39.729591;37.118088;46.816788;;
79288;Laerm;68737;53.946;27.634;2023-07-13T01:30:06;44.091156;37.501472;58.048920;;
79288;Laerm;68737;53.946;27.634;2023-07-13T01:32:36;41.094009;36.559875;48.540695;;
79288;Laerm;68737;53.946;27.634;2023-07-13T01:35:06;40.308136;37.803024;43.891457;;
79288;Laerm;68737;53.946;27.634;2023-07-13T01:37:36;45.434853;38.132874;57.838478;;
79288;Laerm;68737;53.946;27.634;2023-07-13T01:40:06;44.462914;38.189262;56.781296;;
79288;Laerm;68737;53.946;27.634;2023-07-13T01:42:36;43.340202;37.604866;52.788414;;
79288;Laerm;68737;53.946;27.634;2023-07-13T01:45:06;40.887115;37.900917;51.360039;;
79288;Laerm;68737;53.946;27.634;2023-07-13T01:47:36;47.051483;37.339790;60.023010;;
79288;Laerm;68737;53.946;27.634;2023-07-13T01:50:06;43.676468;37.642845;54.378456;;
79288;Laerm;68737;53.946;27.634;2023-07-13T01:52:36;46.383507;37.917122;62.255230;;
79288;Laerm;68737;53.946;27.634;2023-07-13T01:55:06;43.344902;38.083427;56.547379;;
79288;Laerm;68737;53.946;27.634;2023-07-13T01:57:36;46.608398;38.606697;58.474945;;
79288;Laerm;68737;53.946;27.634;2023-07-13T02:00:06;46.264046;36.976784;61.383652;;
79288;Laerm;68737;53.946;27.634;2023-07-13T02:02:36;46.892662;37.737801;65.167641;;
79288;Laerm;68737;53.946;27.634;2023-07-13T02:05:06;45.394913;38.205276;57.988678;;
79288;Laerm;68737;53.946;27.634;2023-07-13T02:07:36;44.828362;38.259384;59.086426;;
79288;Laerm;68737;53.946;27.634;2023-07-13T02:10:06;47.786591;39.323128;58.522644;;
79288;Laerm;68737;53.946;27.634;2023-07-13T02:12:36;51.204315;43.489304;67.779129;;
79288;Laerm;68737;53.946;27.634;2023-07-13T02:15:06;46.637909;39.229126;64.209854;;
79288;Laerm;68737;53.946;27.634;2023-07-13T02:17:36;43.577644;39.145782;54.170746;;
79288;Laerm;68737;53.946;27.634;2023-07-13T02:20:06;45.413246;39.040512;59.555859;;
79288;Laerm;68737;53.946;27.634;2023-07-13T02:22:36;45.270302;38.965790;58.101685;;
79288;Laerm;68737;53.946;27.634;2023-07-13T02:25:06;47.559715;38.786469;62.700119;;
79288;Laerm;68737;53.946;27.634;2023-07-13T02:27:36;43.129303;38.439995;54.841537;;
79288;Laerm;68737;53.946;27.634;2023-07-13T02:30:06;45.879692;39.197601;58.092537;;
79288;Laerm;68737;53.946;27.634;2023-07-13T02:32:36;43.878548;38.551109;55.119827;;
79288;Laerm;68737;53.946;27.634;2023-07-13T02:35:06;48.799759;39.398605;69.611000;;
79288;Laerm;68737;53.946;27.634;2023-07-13T02:37:36;47.895241;40.346748;62.369446;;
79288;Laerm;68737;53.946;27.634;2023-07-13T02:40:06;48.414635;41.725677;59.149071;;
79288;Laerm;68737;53.946;27.634;2023-07-13T02:42:36;47.135017;39.281059;58.373993;;
79288;Laerm;68737;53.946;27.634;2023-07-13T02:45:06;43.222702;39.461021;54.884903;;
79288;Laerm;68737;53.946;27.634;2023-07-13T02:47:36;46.242836;39.758949;66.223450;;
79288;Laerm;68737;53.946;27.634;2023-07-13T02:50:06;45.206566;38.682426;55.831642;;
79288;Laerm;68737;53.946;27.634;2023-07-13T02:52:36;48.531845;40.883598;60.253094;;
79288;Laerm;68737;53.946;27.634;2023-07-13T02:55:06;48.266449;41.395409;57.611839;;
79288;Laerm;68737;53.946;27.634;2023-07-13T02:57:36;52.369675;40.588470;65.712959;;
79288;Laerm;68737;53.946;27.634;2023-07-13T03:00:06;49.797531;39.958984;65.841568;;
79288;Laerm;68737;53.946;27.634;2023-07-13T03:02:36;47.996147;40.371620;58.552902;;
79288;Laerm;68737;53.946;27.634;2023-07-13T03:05:06;49.568886;40.702431;60.946297;;
79288;Laerm;68737;53.946;27.634;2023-07-13T03:07:36;51.313934;40.820587;65.102631;;
79288;Laerm;68737;53.946;27.634;2023-07-13T03:10:06;48.717896;40.919144;58.998131;;
79288;Laerm;68737;53.946;27.634;2023-07-13T03:12:36;50.901146;41.503731;63.295418;;
79288;Laerm;68737;53.946;27.634;2023-07-13T03:15:06;51.998482;41.718658;66.501846;;
79288;Laerm;68737;53.946;27.634;2023-07-13T03:17:36;53.124367;41.175529;77.304810;;
79288;Laerm;68737;53.946;27.634;2023-07-13T03:20:06;47.286736;41.182114;65.632706;;
79288;Laerm;68737;53.946;27.634;2023-07-13T03:22:36;52.226768;40.962372;67.014061;;
79288;Laerm;68737;53.946;27.634;2023-07-13T03:25:06;50.416275;41.656639;62.766510;;
79288;Laerm;68737;53.946;27.634;2023-07-13T03:27:36;49.436348;41.478477;61.381058;;
79288;Laerm;68737;53.946;27.634;2023-07-13T03:30:06;49.869911;41.503281;69.167648;;
79288;Laerm;68737;53.946;27.634;2023-07-13T03:32:36;51.068962;42.547211;59.659618;;
79288;Laerm;68737;53.946;27.634;2023-07-13T03:35:06;47.421722;41.210007;57.261177;;
79288;Laerm;68737;53.946;27.634;2023-07-13T03:37:36;50.032829;41.437454;59.389179;;
79288;Laerm;68737;53.946;27.634;2023-07-13T03:40:06;51.171013;41.583817;61.912350;;
79288;Laerm;68737;53.946;27.634;2023-07-13T03:42:36;49.503098;41.018837;62.637234;;
79288;Laerm;68737;53.946;27.634;2023-07-13T03:45:06;55.387985;40.628304;70.118286;;
79288;Laerm;68737;53.946;27.634;2023-07-13T03:47:36;49.430588;41.579430;59.125546;;
79288;Laerm;68737;53.946;27.634;2023-07-13T03:50:06;47.995522;40.453629;63.362488;;
79288;Laerm;68737;53.946;27.634;2023-07-13T03:52:36;48.256691;41.577141;60.509846;;
79288;Laerm;68737;53.946;27.634;2023-07-13T03:55:06;52.270912;42.805145;63.713234;;
79288;Laerm;68737;53.946;27.634;2023-07-13T03:57:36;52.292221;42.028557;68.533409;;
79288;Laerm;68737;53.946;27.634;2023-07-13T04:00:06;49.740585;41.644081;62.045807;;
79288;Laerm;68737;53.946;27.634;2023-07-13T04:02:36;53.254532;43.408844;63.804008;;
79288;Laerm;68737;53.946;27.634;2023-07-13T04:05:06;50.401466;41.945709;60.226303;;
79288;Laerm;68737;53.946;27.634;2023-07-13T04:07:36;52.974770;45.649178;66.658325;;
79288;Laerm;68737;53.946;27.634;2023-07-13T04:10:06;55.611053;50.762932;67.251450;;
79288;Laerm;68737;53.946;27.634;2023-07-13T04:12:36;56.690460;50.131287;66.956001;;
79288;Laerm;68737;53.946;27.634;2023-07-13T04:15:06;53.163353;45.823479;60.932518;;
79288;Laerm;68737;53.946;27.634;2023-07-13T04:17:36;53.879616;46.042442;61.777393;;
79288;Laerm;68737;53.946;27.634;2023-07-13T04:20:06;52.481277;44.819412;61.938755;;
79288;Laerm;68737;53.946;27.634;2023-07-13T04:22:36;52.727386;44.266121;73.890198;;
79288;Laerm;68737;53.946;27.634;2023-07-13T04:25:06;52.560478;43.677895;73.859421;;
79288;Laerm;68737;53.946;27.634;2023-07-13T04:27:36;54.710419;46.934898;73.527222;;
79288;Laerm;68737;53.946;27.634;2023-07-13T04:30:06;54.118668;47.109787;68.477234;;
79288;Laerm;68737;53.946;27.634;2023-07-13T04:32:36;53.320251;44.194534;65.126953;;
79288;Laerm;68737;53.946;27.634;2023-07-13T04:35:06;58.167145;45.458130;79.827866;;
79288;Laerm;68737;53.946;27.634;2023-07-13T04:37:36;56.382332;45.411568;78.844543;;
79288;Laerm;68737;53.946;27.634;2023-07-13T04:40:06;54.375267;45.349976;65.527496;;
79288;Laerm;68737;53.946;27.634;2023-07-13T04:42:36;55.383286;45.472481;63.879570;;
79288;Laerm;68737;53.946;27.634;2023-07-13T04:45:06;56.412956;45.979729;64.389717;;
79288;Laerm;68737;53.946;27.634;2023-07-13T04:47:36;53.946091;45.603943;62.587559;;
79288;Laerm;68737;53.946;27.634;2023-07-13T04:50:06;54.437042;47.755791;60.877361;;
79288;Laerm;68737;53.946;27.634;2023-07-13T04:52:36;55.578438;46.005974;65.707993;;
79288;Laerm;68737;53.946;27.634;2023-07-13T04:55:06;54.286636;45.985222;63.763752;;
79288;Laerm;68737;53.946;27.634;2023-07-13T04:57:36;53.572975;44.063248;64.602341;;
79288;Laerm;68737;53.946;27.634;2023-07-13T05:00:06;57.270126;47.969284;70.825104;;
79288;Laerm;68737;53.946;27.634;2023-07-13T05:02:37;56.209587;47.576294;72.688324;;
79288;Laerm;68737;53.946;27.634;2023-07-13T05:05:06;54.529045;46.057442;62.670120;;
79288;Laerm;68737;53.946;27.634;2023-07-13T05:07:36;54.454781;46.216248;61.950588;;
79288;Laerm;68737;53.946;27.634;2023-07-13T05:10:06;54.518990;45.501884;62.796402;;
79288;Laerm;68737;53.946;27.634;2023-07-13T05:12:36;54.445953;46.256462;65.467560;;
79288;Laerm;68737;53.946;27.634;2023-07-13T05:15:06;56.875366;45.538490;68.307335;;
79288;Laerm;68737;53.946;27.634;2023-07-13T05:17:36;53.709297;45.709503;65.546570;;
79288;Laerm;68737;53.946;27.634;2023-07-13T05:20:06;57.737839;48.486053;66.640213;;
79288;Laerm;68737;53.946;27.634;2023-07-13T05:22:36;55.182564;46.448959;64.580376;;
79288;Laerm;68737;53.946;27.634;2023-07-13T05:25:06;56.150383;46.657936;68.800049;;
79288;Laerm;68737;53.946;27.634;2023-07-13T05:27:36;57.397842;44.933273;68.001160;;
79288;Laerm;68737;53.946;27.634;2023-07-13T05:30:06;56.292076;46.641449;69.797432;;
79288;Laerm;68737;53.946;27.634;2023-07-13T05:32:36;54.390625;45.030983;61.071251;;
79288;Laerm;68737;53.946;27.634;2023-07-13T05:35:06;55.826599;47.024605;67.316673;;
79288;Laerm;68737;53.946;27.634;2023-07-13T05:37:36;58.545059;47.821297;70.164574;;
79288;Laerm;68737;53.946;27.634;2023-07-13T05:40:06;55.300636;48.144173;61.604382;;
79288;Laerm;68737;53.946;27.634;2023-07-13T05:42:36;56.105049;47.592575;62.460056;;
79288;Laerm;68737;53.946;27.634;2023-07-13T05:45:06;54.335342;46.547813;62.878151;;
79288;Laerm;68737;53.946;27.634;2023-07-13T05:47:36;58.906601;47.753227;70.193573;;
79288;Laerm;68737;53.946;27.634;2023-07-13T05:50:06;55.631721;48.072021;70.586868;;
79288;Laerm;68737;53.946;27.634;2023-07-13T05:52:36;56.183762;50.437119;64.289803;;
79288;Laerm;68737;53.946;27.634;2023-07-13T05:55:06;55.256439;47.227280;61.792938;;
79288;Laerm;68737;53.946;27.634;2023-07-13T05:57:36;55.648315;46.916969;64.354843;;
79288;Laerm;68737;53.946;27.634;2023-07-13T06:00:06;54.478745;46.794678;62.705639;;
79288;Laerm;68737;53.946;27.634;2023-07-13T06:02:36;58.145729;46.029900;70.315063;;
79288;Laerm;68737;53.946;27.634;2023-07-13T06:05:06;56.679832;47.073730;66.640289;;
79288;Laerm;68737;53.946;27.634;2023-07-13T06:07:36;56.257126;44.811470;70.924530;;
79288;Laerm;68737;53.946;27.634;2023-07-13T06:10:06;55.211983;45.817871;68.786087;;
79288;Laerm;68737;53.946;27.634;2023-07-13T06:12:36;55.139664;45.645309;60.989365;;
79288;Laerm;68737;53.946;27.634;2023-07-13T06:15:06;52.242546;44.067444;63.610016;;
79288;Laerm;68737;53.946;27.634;2023-07-13T06:17:36;58.588791;47.000175;72.151062;;
79288;Laerm;68737;53.946;27.634;2023-07-13T06:20:06;52.765221;43.558640;61.682755;;
79288;Laerm;68737;53.946;27.634;2023-07-13T06:22:36;53.993507;44.491104;61.934189;;
79288;Laerm;68737;53.946;27.634;2023-07-13T06:25:06;53.695335;45.707222;71.434143;;
79288;Laerm;68737;53.946;27.634;2023-07-13T06:27:36;54.819695;45.956841;67.288513;;
79288;Laerm;68737;53.946;27.634;2023-07-13T06:30:06;54.281975;42.979561;67.174011;;
79288;Laerm;68737;53.946;27.634;2023-07-13T06:32:36;54.945534;42.893326;68.370712;;
79288;Laerm;68737;53.946;27.634;2023-07-13T06:35:06;53.996986;43.447998;60.259842;;
79288;Laerm;68737;53.946;27.634;2023-07-13T06:37:35;53.983727;42.885361;60.085613;;
79288;Laerm;68737;53.946;27.634;2023-07-13T06:40:06;53.237007;43.557655;61.742966;;
79288;Laerm;68737;53.946;27.634;2023-07-13T06:42:35;54.050629;41.667755;63.342537;;
79288;Laerm;68737;53.946;27.634;2023-07-13T06:45:06;55.150505;45.864891;66.123108;;
79288;Laerm;68737;53.946;27.634;2023-07-13T06:47:35;54.878479;41.398033;67.372177;;
79288;Laerm;68737;53.946;27.634;2023-07-13T06:50:06;54.210991;44.907310;61.939140;;
79288;Laerm;68737;53.946;27.634;2023-07-13T06:52:35;54.929726;42.433746;62.431076;;
79288;Laerm;68737;53.946;27.634;2023-07-13T06:55:06;53.875618;42.167709;60.581902;;
79288;Laerm;68737;53.946;27.634;2023-07-13T06:57:35;53.366180;42.905319;65.991989;;
79288;Laerm;68737;53.946;27.634;2023-07-13T07:00:06;55.825005;42.418587;66.037346;;
79288;Laerm;68737;53.946;27.634;2023-07-13T07:02:35;53.542809;43.570610;67.064392;;
79288;Laerm;68737;53.946;27.634;2023-07-13T07:05:06;54.256943;42.171623;63.500973;;
79288;Laerm;68737;53.946;27.634;2023-07-13T07:07:35;56.374458;43.716545;66.057114;;
79288;Laerm;68737;53.946;27.634;2023-07-13T07:10:06;53.954338;41.928024;64.527809;;
79288;Laerm;68737;53.946;27.634;2023-07-13T07:12:35;54.008888;42.269592;62.942242;;
79288;Laerm;68737;53.946;27.634;2023-07-13T07:15:06;53.519226;43.138870;62.472782;;
79288;Laerm;68737;53.946;27.634;2023-07-13T07:17:35;54.578186;41.277428;63.023590;;
79288;Laerm;68737;53.946;27.634;2023-07-13T07:20:06;53.594734;41.965790;64.236755;;
79288;Laerm;68737;53.946;27.634;2023-07-13T07:22:35;54.862511;43.227142;61.751545;;
79288;Laerm;68737;53.946;27.634;2023-07-13T07:25:06;53.059685;42.915985;64.392136;;
79288;Laerm;68737;53.946;27.634;2023-07-13T07:27:35;55.007942;43.243965;68.449028;;
79288;Laerm;68737;53.946;27.634;2023-07-13T07:30:06;52.973122;41.986015;61.905918;;
79288;Laerm;68737;53.946;27.634;2023-07-13T07:32:35;54.262344;42.311821;62.235291;;
79288;Laerm;68737;53.946;27.634;2023-07-13T07:35:06;53.241211;43.076515;61.914703;;
79288;Laerm;68737;53.946;27.634;2023-07-13T07:37:35;55.139114;44.104790;63.597572;;
79288;Laerm;68737;53.946;27.634;2023-07-13T07:40:06;53.262970;43.042816;64.911621;;
79288;Laerm;68737;53.946;27.634;2023-07-13T07:42:35;54.381615;42.321838;64.590775;;
79288;Laerm;68737;53.946;27.634;2023-07-13T07:45:06;54.452332;43.172218;63.180069;;
79288;Laerm;68737;53.946;27.634;2023-07-13T07:47:35;53.337555;42.770126;63.578648;;
79288;Laerm;68737;53.946;27.634;2023-07-13T07:50:06;52.958466;44.295341;61.676479;;
79288;Laerm;68737;53.946;27.634;2023-07-13T07:52:35;57.349907;46.847038;67.630287;;
79288;Laerm;68737;53.946;27.634;2023-07-13T07:55:06;56.124153;45.374039;71.102608;;
79288;Laerm;68737;53.946;27.634;2023-07-13T07:57:35;53.857178;43.236168;66.987869;;
79288;Laerm;68737;53.946;27.634;2023-07-13T08:00:06;55.511795;43.379913;71.696487;;
79288;Laerm;68737;53.946;27.634;2023-07-13T08:02:35;54.748032;43.169083;63.195732;;
79288;Laerm;68737;53.946;27.634;2023-07-13T08:05:06;53.575325;42.762085;63.645287;;
79288;Laerm;68737;53.946;27.634;2023-07-13T08:07:40;54.022118;42.334839;65.581924;;
79288;Laerm;68737;53.946;27.634;2023-07-13T08:10:06;54.363899;44.070618;64.023674;;
79288;Laerm;68737;53.946;27.634;2023-07-13T08:12:36;57.265541;43.947807;67.904907;;
79288;Laerm;68737;53.946;27.634;2023-07-13T08:15:08;56.650162;43.987297;71.994911;;
79288;Laerm;68737;53.946;27.634;2023-07-13T08:17:35;54.589302;44.988625;62.996590;;
79288;Laerm;68737;53.946;27.634;2023-07-13T08:20:06;52.684883;44.202217;60.026054;;
79288;Laerm;68737;53.946;27.634;2023-07-13T08:22:35;61.057327;47.992584;73.020294;;
79288;Laerm;68737;53.946;27.634;2023-07-13T08:25:06;55.113289;43.663963;64.235367;;
79288;Laerm;68737;53.946;27.634;2023-07-13T08:27:35;54.341034;43.707039;63.168133;;
79288;Laerm;68737;53.946;27.634;2023-07-13T08:30:06;56.494461;44.302528;72.497208;;
79288;Laerm;68737;53.946;27.634;2023-07-13T08:32:35;56.087685;42.915909;72.965683;;
79288;Laerm;68737;53.946;27.634;2023-07-13T08:35:06;54.608711;45.104294;69.701393;;
79288;Laerm;68737;53.946;27.634;2023-07-13T08:37:35;55.631477;44.455261;71.642677;;
79288;Laerm;68737;53.946;27.634;2023-07-13T08:40:07;55.811920;44.688957;71.684784;;
79288;Laerm;68737;53.946;27.634;2023-07-13T08:47:36;54.838623;45.666008;70.212105;;
79288;Laerm;68737;53.946;27.634;2023-07-13T08:50:08;58.772125;43.301849;76.037209;;
79288;Laerm;68737;53.946;27.634;2023-07-13T08:55:09;52.920982;43.315491;60.916214;;
79288;Laerm;68737;53.946;27.634;2023-07-13T08:57:35;54.210083;42.648392;62.220814;;
79288;Laerm;68737;53.946;27.634;2023-07-13T09:00:07;53.798775;43.274155;62.702717;;
79288;Laerm;68737;53.946;27.634;2023-07-13T09:12:39;56.488556;46.860497;65.984680;;
79288;Laerm;68737;53.946;27.634;2023-07-13T09:15:24;53.656166;43.898399;65.217361;;
79288;Laerm;68737;53.946;27.634;2023-07-13T09:17:37;55.651993;46.282974;63.925697;;
79288;Laerm;68737;53.946;27.634;2023-07-13T09:22:36;54.876129;43.912796;61.531456;;
79288;Laerm;68737;53.946;27.634;2023-07-13T09:32:35;52.161736;43.470070;60.227898;;
79288;Laerm;68737;53.946;27.634;2023-07-13T09:35:10;53.263130;46.468048;61.526421;;
79288;Laerm;68737;53.946;27.634;2023-07-13T09:37:35;56.328575;47.150070;68.048073;;
79288;Laerm;68737;53.946;27.634;2023-07-13T09:40:08;53.829147;45.486450;62.027416;;
79288;Laerm;68737;53.946;27.634;2023-07-13T09:42:35;54.686127;47.502670;62.868980;;
79288;Laerm;68737;53.946;27.634;2023-07-13T09:45:05;53.779724;44.141342;62.282921;;
79288;Laerm;68737;53.946;27.634;2023-07-13T09:50:06;55.647408;46.831505;67.433731;;
79288;Laerm;68737;53.946;27.634;2023-07-13T09:55:11;53.487213;44.956223;62.927891;;
79288;Laerm;68737;53.946;27.634;2023-07-13T09:57:35;58.856384;46.231422;71.875336;;
79288;Laerm;68737;53.946;27.634;2023-07-13T10:00:06;54.943810;47.258316;61.781311;;
79288;Laerm;68737;53.946;27.634;2023-07-13T10:02:35;57.299370;48.654663;68.419487;;
79288;Laerm;68737;53.946;27.634;2023-07-13T10:05:06;57.676186;45.264923;70.289413;;
79288;Laerm;68737;53.946;27.634;2023-07-13T10:07:43;55.383514;45.760620;65.757614;;
79288;Laerm;68737;53.946;27.634;2023-07-13T10:10:13;55.241562;46.742569;66.249313;;
79288;Laerm;68737;53.946;27.634;2023-07-13T10:12:36;55.601517;46.504753;67.523056;;
79288;Laerm;68737;53.946;27.634;2023-07-13T10:15:07;55.105347;46.372841;68.384979;;
79288;Laerm;68737;53.946;27.634;2023-07-13T10:17:35;58.774597;47.534561;71.053635;;
79288;Laerm;68737;53.946;27.634;2023-07-13T10:20:05;53.864662;45.157112;67.586823;;
79288;Laerm;68737;53.946;27.634;2023-07-13T10:22:37;56.461517;45.096886;67.764664;;
79288;Laerm;68737;53.946;27.634;2023-07-13T10:25:15;53.687286;46.723175;60.149433;;
79288;Laerm;68737;53.946;27.634;2023-07-13T10:27:35;55.037155;48.115654;64.486557;;
79288;Laerm;68737;53.946;27.634;2023-07-13T10:32:35;54.817245;46.246269;74.478607;;
79288;Laerm;68737;53.946;27.634;2023-07-13T10:35:07;53.577141;46.711678;65.207291;;
79288;Laerm;68737;53.946;27.634;2023-07-13T10:40:06;56.651222;45.858742;68.476097;;
79288;Laerm;68737;53.946;27.634;2023-07-13T10:42:37;55.723770;46.573715;69.710060;;
79288;Laerm;68737;53.946;27.634;2023-07-13T10:47:35;54.777565;44.022789;68.760246;;
79288;Laerm;68737;53.946;27.634;2023-07-13T10:50:06;52.563438;43.093269;59.823982;;
79288;Laerm;68737;53.946;27.634;2023-07-13T10:52:40;55.848091;47.930603;68.956902;;
79288;Laerm;68737;53.946;27.634;2023-07-13T10:55:07;54.094261;46.001610;67.685257;;
79288;Laerm;68737;53.946;27.634;2023-07-13T10:57:41;56.490173;47.813309;68.942497;;
79288;Laerm;68737;53.946;27.634;2023-07-13T11:02:35;55.373970;44.130920;74.481514;;
79288;Laerm;68737;53.946;27.634;2023-07-13T11:07:51;55.489456;48.006348;65.028572;;
79288;Laerm;68737;53.946;27.634;2023-07-13T11:10:06;53.115601;44.993004;64.476013;;
79288;Laerm;68737;53.946;27.634;2023-07-13T11:15:09;55.602440;46.385193;66.297371;;
79288;Laerm;68737;53.946;27.634;2023-07-13T11:17:36;59.020020;46.781326;75.769142;;
79288;Laerm;68737;53.946;27.634;2023-07-13T11:25:20;54.828629;48.714325;64.288933;;
79288;Laerm;68737;53.946;27.634;2023-07-13T11:27:37;57.168510;47.976982;70.849335;;
79288;Laerm;68737;53.946;27.634;2023-07-13T11:32:35;53.207573;44.619400;61.325798;;
79288;Laerm;68737;53.946;27.634;2023-07-13T11:35:08;64.132652;48.301414;86.130981;;
79288;Laerm;68737;53.946;27.634;2023-07-13T11:37:35;57.406967;45.078079;68.053772;;
79288;Laerm;68737;53.946;27.634;2023-07-13T11:40:11;54.313278;43.719429;66.600082;;
79288;Laerm;68737;53.946;27.634;2023-07-13T11:42:35;56.082130;46.960587;66.735199;;
79288;Laerm;68737;53.946;27.634;2023-07-13T11:45:14;52.794777;45.204819;66.313416;;
79288;Laerm;68737;53.946;27.634;2023-07-13T11:47:39;55.754128;47.122849;65.312592;;
79288;Laerm;68737;53.946;27.634;2023-07-13T11:50:05;57.426208;47.882294;71.436218;;
79288;Laerm;68737;53.946;27.634;2023-07-13T11:52:36;55.433937;48.255966;64.195404;;
79288;Laerm;68737;53.946;27.634;2023-07-13T11:55:14;55.693687;49.174957;62.313614;;
79288;Laerm;68737;53.946;27.634;2023-07-13T11:57:37;57.415031;48.527245;67.991806;;
79288;Laerm;68737;53.946;27.634;2023-07-13T12:00:15;57.607071;49.022339;69.662292;;
79288;Laerm;68737;53.946;27.634;2023-07-13T12:02:40;55.343987;43.783363;62.510708;;
79288;Laerm;68737;53.946;27.634;2023-07-13T12:05:05;54.906044;46.925362;60.617012;;
79288;Laerm;68737;53.946;27.634;2023-07-13T12:07:35;54.844170;48.001793;62.331203;;
79288;Laerm;68737;53.946;27.634;2023-07-13T12:12:36;55.190117;45.561432;64.560028;;
79288;Laerm;68737;53.946;27.634;2023-07-13T12:15:10;53.256439;43.472115;64.910965;;
79288;Laerm;68737;53.946;27.634;2023-07-13T12:17:35;58.170891;48.508255;73.671173;;
79288;Laerm;68737;53.946;27.634;2023-07-13T12:22:35;55.464958;44.311455;67.618988;;
79288;Laerm;68737;53.946;27.634;2023-07-13T12:25:05;53.182953;44.926933;62.903919;;
79288;Laerm;68737;53.946;27.634;2023-07-13T12:27:35;54.253662;46.050194;62.240116;;
79288;Laerm;68737;53.946;27.634;2023-07-13T12:30:20;55.052849;48.954300;66.953232;;
79288;Laerm;68737;53.946;27.634;2023-07-13T12:32:35;54.857819;47.533966;63.503582;;
79288;Laerm;68737;53.946;27.634;2023-07-13T12:37:35;55.235184;45.714058;62.133423;;
79288;Laerm;68737;53.946;27.634;2023-07-13T12:40:05;55.029404;45.772446;65.573540;;
79288;Laerm;68737;53.946;27.634;2023-07-13T12:42:35;54.414383;45.425339;62.455803;;
79288;Laerm;68737;53.946;27.634;2023-07-13T12:50:12;56.868484;47.304741;65.938370;;
79288;Laerm;68737;53.946;27.634;2023-07-13T12:52:35;55.800331;49.077400;64.278992;;
79288;Laerm;68737;53.946;27.634;2023-07-13T13:00:11;53.724342;44.681229;64.102905;;
79288;Laerm;68737;53.946;27.634;2023-07-13T13:02:35;56.239082;45.839165;65.238815;;
79288;Laerm;68737;53.946;27.634;2023-07-13T13:05:05;57.022186;48.572243;66.182068;;